^^
Saratoga-Weather Station Historical Data
Daily Summary for May 29, 2021 Units:  Both    English   Metric
Daily Weekly Monthly Yearly Custom
  High: Low: Average:
Temperature: 70.9 °F /  21.6 °C 57.7 °F /  14.3 °C 63.3 °F /  17.4 °C
Dew Point: 62.1 °F /  16.7 °C 55.6 °F /  13.1 °C 59 °F /  15 °C
Humidity: 95% 71% 86%
Wind Speed: 10.1mph /  16.3km/h - 1.3mph /  2.1km/h
Wind Gust: 11mph /  17.7km/h - -
Wind- - West
Pressure: 29.9 in /  1013.2 hPa 29.8 in /  1010.5 hPa -
Precipitation: 0.16 in /  4.1 mm    
Historical Graphs
 
 
Tabular Data for May 29, 2021
Time Temperature Dew Point Pressure Wind Wind Speed Wind Gust Humidity Rainfall Rate (Hourly) solar
00:03 64.9 °F /  18.3 °C 61.3 °F /  16.3 °C 29.9in /  1012.9hPa Calm   1mph /  1.6km/h 88% 0in /  0.0mm 0 W/m2
00:08 64.8 °F /  18.2 °C 61.5 °F /  16.4 °C 29.9in /  1012.9hPa NE 0.9mph /  1.4km/h 1mph /  1.6km/h 89% 0in /  0.0mm 0 W/m2
00:13 64.8 °F /  18.2 °C 61.5 °F /  16.4 °C 29.9in /  1013.2hPa Calm   1mph /  1.6km/h 89% 0in /  0.0mm 0 W/m2
00:18 64.8 °F /  18.2 °C 61.5 °F /  16.4 °C 29.9in /  1012.9hPa NE 0.9mph /  1.4km/h 2mph /  3.2km/h 89% 0in /  0.0mm 0 W/m2
00:23 64.8 °F /  18.2 °C 61.5 °F /  16.4 °C 29.9in /  1013.2hPa Calm   1mph /  1.6km/h 89% 0in /  0.0mm 0 W/m2
00:28 64.8 °F /  18.2 °C 61.5 °F /  16.4 °C 29.9in /  1013.2hPa East 0.9mph /  1.4km/h 2mph /  3.2km/h 89% 0in /  0.0mm 0 W/m2
00:33 64.8 °F /  18.2 °C 61.5 °F /  16.4 °C 29.9in /  1013.2hPa East 2mph /  3.2km/h 4mph /  6.4km/h 89% 0in /  0.0mm 0 W/m2
00:38 64.9 °F /  18.3 °C 61.3 °F /  16.3 °C 29.9in /  1013.2hPa Calm   4mph /  6.4km/h 88% 0in /  0.0mm 0 W/m2
00:43 64.9 °F /  18.3 °C 61.3 °F /  16.3 °C 29.9in /  1013.2hPa Calm   2mph /  3.2km/h 88% 0in /  0.0mm 0 W/m2
00:48 64.9 °F /  18.3 °C 61.3 °F /  16.3 °C 29.9in /  1012.9hPa Calm   1mph /  1.6km/h 88% 0in /  0.0mm 0 W/m2
00:53 64.9 °F /  18.3 °C 61.3 °F /  16.3 °C 29.9in /  1012.9hPa NW 2mph /  3.2km/h 3mph /  4.8km/h 88% 0in /  0.0mm 0 W/m2
00:58 64.9 °F /  18.3 °C 61 °F /  16.1 °C 29.9in /  1012.9hPa WNW 2mph /  3.2km/h 8mph /  12.9km/h 87% 0in /  0.0mm 0 W/m2
01:03 65.1 °F /  18.4 °C 61.2 °F /  16.2 °C 29.9in /  1012.9hPa WNW 2.9mph /  4.7km/h 4mph /  6.4km/h 87% 0in /  0.0mm 0 W/m2
01:08 65.1 °F /  18.4 °C 60.8 °F /  16 °C 29.9in /  1012.9hPa WSW 2.9mph /  4.7km/h 8mph /  12.9km/h 86% 0in /  0.0mm 0 W/m2
01:13 64.9 °F /  18.3 °C 60.6 °F /  15.9 °C 29.9in /  1012.5hPa WNW 4.9mph /  7.9km/h 5mph /  8km/h 86% 0in /  0.0mm 0 W/m2
01:18 64.9 °F /  18.3 °C 60.6 °F /  15.9 °C 29.9in /  1012.5hPa SW 2mph /  3.2km/h 7mph /  11.3km/h 86% 0in /  0.0mm 0 W/m2
01:23 64.8 °F /  18.2 °C 60.4 °F /  15.8 °C 29.9in /  1012.5hPa West 0.9mph /  1.4km/h 3mph /  4.8km/h 86% 0in /  0.0mm 0 W/m2
01:28 64.8 °F /  18.2 °C 60.1 °F /  15.6 °C 29.9in /  1012.5hPa WNW 2mph /  3.2km/h 6mph /  9.7km/h 85% 0in /  0.0mm 0 W/m2
01:33 64.8 °F /  18.2 °C 59.9 °F /  15.5 °C 29.9in /  1012.5hPa West 0.9mph /  1.4km/h 4mph /  6.4km/h 84% 0in /  0.0mm 0 W/m2
01:38 64.8 °F /  18.2 °C 59.9 °F /  15.5 °C 29.9in /  1012.5hPa Calm   7mph /  11.3km/h 84% 0in /  0.0mm 0 W/m2
01:43 64.8 °F /  18.2 °C 59.9 °F /  15.5 °C 29.9in /  1012.5hPa Calm     84% 0in /  0.0mm 0 W/m2
01:48 64.6 °F /  18.1 °C 59.4 °F /  15.2 °C 29.9in /  1012.5hPa Calm   1mph /  1.6km/h 83% 0in /  0.0mm 0 W/m2
01:53 64.4 °F /  18 °C 59.2 °F /  15.1 °C 29.9in /  1012.5hPa NW 0.9mph /  1.4km/h 1mph /  1.6km/h 83% 0in /  0.0mm 0 W/m2
01:58 64.2 °F /  17.9 °C 59 °F /  15 °C 29.9in /  1012.5hPa NW 0.9mph /  1.4km/h 1mph /  1.6km/h 83% 0in /  0.0mm 0 W/m2
02:03 64 °F /  17.8 °C 58.8 °F /  14.9 °C 29.9in /  1012.5hPa WNW 2mph /  3.2km/h 2mph /  3.2km/h 83% 0in /  0.0mm 0 W/m2
02:08 63.9 °F /  17.7 °C 58.3 °F /  14.6 °C 29.9in /  1012.5hPa West 0.9mph /  1.4km/h 3mph /  4.8km/h 82% 0in /  0.0mm 0 W/m2
02:13 63.9 °F /  17.7 °C 58.3 °F /  14.6 °C 29.9in /  1012.5hPa West 0.9mph /  1.4km/h 2mph /  3.2km/h 82% 0in /  0.0mm 0 W/m2
02:18 63.7 °F /  17.6 °C 58.1 °F /  14.5 °C 29.9in /  1012.5hPa West 2mph /  3.2km/h 3mph /  4.8km/h 82% 0in /  0.0mm 0 W/m2
02:23 63.7 °F /  17.6 °C 57.7 °F /  14.3 °C 29.9in /  1012.5hPa Calm   3mph /  4.8km/h 81% 0in /  0.0mm 0 W/m2
02:28 63.5 °F /  17.5 °C 57.2 °F /  14 °C 29.9in /  1012.9hPa WNW 2mph /  3.2km/h 7mph /  11.3km/h 80% 0in /  0.0mm 0 W/m2
02:33 63.5 °F /  17.5 °C 56.8 °F /  13.8 °C 29.9in /  1012.9hPa West 0.9mph /  1.4km/h 4mph /  6.4km/h 79% 0in /  0.0mm 0 W/m2
02:38 63.5 °F /  17.5 °C 56.8 °F /  13.8 °C 29.9in /  1012.9hPa West 4mph /  6.4km/h 4mph /  6.4km/h 79% 0in /  0.0mm 0 W/m2
02:43 63.3 °F /  17.4 °C 57 °F /  13.9 °C 29.9in /  1012.9hPa West 0.9mph /  1.4km/h 4mph /  6.4km/h 80% 0in /  0.0mm 0 W/m2
02:48 63.1 °F /  17.3 °C 57.2 °F /  14 °C 29.9in /  1012.9hPa West 0.9mph /  1.4km/h 3mph /  4.8km/h 81% 0in /  0.0mm 0 W/m2
02:53 63 °F /  17.2 °C 57 °F /  13.9 °C 29.9in /  1012.5hPa West 2mph /  3.2km/h 3mph /  4.8km/h 81% 0in /  0.0mm 0 W/m2
02:58 62.8 °F /  17.1 °C 56.8 °F /  13.8 °C 29.9in /  1012.5hPa West 0.9mph /  1.4km/h 3mph /  4.8km/h 81% 0in /  0.0mm 0 W/m2
03:03 62.4 °F /  16.9 °C 56.5 °F /  13.6 °C 29.9in /  1012.5hPa Calm   3mph /  4.8km/h 81% 0in /  0.0mm 0 W/m2
03:08 62.4 °F /  16.9 °C 56.5 °F /  13.6 °C 29.9in /  1012.5hPa WNW 2mph /  3.2km/h 5mph /  8km/h 81% 0in /  0.0mm 0 W/m2
03:13 62.2 °F /  16.8 °C 56.3 °F /  13.5 °C 29.9in /  1012.5hPa WNW 0.9mph /  1.4km/h 3mph /  4.8km/h 81% 0in /  0.0mm 0 W/m2
03:18 62.2 °F /  16.8 °C 56.7 °F /  13.7 °C 29.9in /  1012.2hPa WNW 0.9mph /  1.4km/h 5mph /  8km/h 82% 0in /  0.0mm 0 W/m2
03:23 62.1 °F /  16.7 °C 56.5 °F /  13.6 °C 29.9in /  1012.2hPa WNW 0.9mph /  1.4km/h 2mph /  3.2km/h 82% 0in /  0.0mm 0 W/m2
03:28 61.9 °F /  16.6 °C 56.3 °F /  13.5 °C 29.9in /  1012.2hPa Calm     82% 0in /  0.0mm 0 W/m2
03:33 61.9 °F /  16.6 °C 56.7 °F /  13.7 °C 29.9in /  1012.2hPa Calm     83% 0in /  0.0mm 0 W/m2
03:38 61.5 °F /  16.4 °C 56.3 °F /  13.5 °C 29.9in /  1012.5hPa Calm   2mph /  3.2km/h 83% 0in /  0.0mm 0 W/m2
03:43 61.3 °F /  16.3 °C 56.5 °F /  13.6 °C 29.9in /  1012.5hPa Calm   1mph /  1.6km/h 84% 0in /  0.0mm 0 W/m2
03:48 61 °F /  16.1 °C 56.5 °F /  13.6 °C 29.9in /  1012.5hPa Calm     85% 0in /  0.0mm 0 W/m2
03:53 60.8 °F /  16 °C 56.3 °F /  13.5 °C 29.9in /  1012.5hPa Calm   1mph /  1.6km/h 85% 0in /  0.0mm 0 W/m2
03:58 60.6 °F /  15.9 °C 56.5 °F /  13.6 °C 29.9in /  1012.2hPa Calm     86% 0in /  0.0mm 0 W/m2
04:03 60.4 °F /  15.8 °C 56.3 °F /  13.5 °C 29.9in /  1012.2hPa Calm     86% 0in /  0.0mm 0 W/m2
04:08 60.3 °F /  15.7 °C 56.3 °F /  13.5 °C 29.9in /  1012.2hPa West 0.9mph /  1.4km/h 2mph /  3.2km/h 87% 0in /  0.0mm 0 W/m2
04:13 60.1 °F /  15.6 °C 56.1 °F /  13.4 °C 29.9in /  1012.2hPa West 0.9mph /  1.4km/h 1mph /  1.6km/h 87% 0in /  0.0mm 0 W/m2
04:18 59.9 °F /  15.5 °C 56.3 °F /  13.5 °C 29.9in /  1012.2hPa Calm     88% 0in /  0.0mm 0 W/m2
04:23 59.7 °F /  15.4 °C 56.1 °F /  13.4 °C 29.9in /  1011.9hPa Calm   1mph /  1.6km/h 88% 0in /  0.0mm 0 W/m2
04:28 59.7 °F /  15.4 °C 56.1 °F /  13.4 °C 29.9in /  1012.2hPa Calm     88% 0in /  0.0mm 0 W/m2
04:33 59.7 °F /  15.4 °C 56.1 °F /  13.4 °C 29.9in /  1012.2hPa Calm     88% 0in /  0.0mm 0 W/m2
04:38 59.5 °F /  15.3 °C 55.9 °F /  13.3 °C 29.9in /  1012.2hPa West 0.9mph /  1.4km/h 2mph /  3.2km/h 88% 0in /  0.0mm 0 W/m2
04:43 59.4 °F /  15.2 °C 56.1 °F /  13.4 °C 29.9in /  1012.2hPa Calm     89% 0in /  0.0mm 0 W/m2
04:48 59.4 °F /  15.2 °C 55.8 °F /  13.2 °C 29.9in /  1012.2hPa Calm   1mph /  1.6km/h 88% 0in /  0.0mm 0 W/m2
04:54 59.2 °F /  15.1 °C 55.9 °F /  13.3 °C 29.9in /  1012.2hPa Calm     89% 0in /  0.0mm 0 W/m2
04:59 58.8 °F /  14.9 °C 55.6 °F /  13.1 °C 29.9in /  1012.2hPa West 0.9mph /  1.4km/h 1mph /  1.6km/h 89% 0in /  0.0mm 0 W/m2
05:04 58.8 °F /  14.9 °C 55.9 °F /  13.3 °C 29.9in /  1012.2hPa West 2mph /  3.2km/h 4mph /  6.4km/h 90% 0in /  0.0mm 0 W/m2
05:09 58.8 °F /  14.9 °C 55.9 °F /  13.3 °C 29.9in /  1012.2hPa Calm   1mph /  1.6km/h 90% 0in /  0.0mm 0 W/m2
05:14 58.8 °F /  14.9 °C 55.9 °F /  13.3 °C 29.9in /  1012.2hPa Calm   4mph /  6.4km/h 90% 0in /  0.0mm 0 W/m2
05:19 58.8 °F /  14.9 °C 55.9 °F /  13.3 °C 29.9in /  1012.2hPa West 0.9mph /  1.4km/h 2mph /  3.2km/h 90% 0in /  0.0mm 0 W/m2
05:24 58.8 °F /  14.9 °C 55.9 °F /  13.3 °C 29.9in /  1011.9hPa West 2.9mph /  4.7km/h 4mph /  6.4km/h 90% 0in /  0.0mm 0 W/m2
05:29 59 °F /  15 °C 56.1 °F /  13.4 °C 29.9in /  1011.9hPa Calm   3mph /  4.8km/h 90% 0in /  0.0mm 0 W/m2
05:34 59 °F /  15 °C 56.1 °F /  13.4 °C 29.9in /  1011.9hPa Calm   4mph /  6.4km/h 90% 0in /  0.0mm 0 W/m2
05:39 59 °F /  15 °C 56.1 °F /  13.4 °C 29.9in /  1012.2hPa Calm     90% 0in /  0.0mm 0 W/m2
05:44 59 °F /  15 °C 56.1 °F /  13.4 °C 29.9in /  1012.2hPa West 2mph /  3.2km/h 2mph /  3.2km/h 90% 0in /  0.0mm 0 W/m2
05:49 59.2 °F /  15.1 °C 56.3 °F /  13.5 °C 29.9in /  1012.2hPa NW 0.9mph /  1.4km/h 1mph /  1.6km/h 90% 0in /  0.0mm 0 W/m2
05:54 59.2 °F /  15.1 °C 56.3 °F /  13.5 °C 29.9in /  1012.2hPa ESE 0.9mph /  1.4km/h 2mph /  3.2km/h 90% 0in /  0.0mm 0 W/m2
05:59 59.2 °F /  15.1 °C 56.3 °F /  13.5 °C 29.9in /  1012.5hPa Calm   3mph /  4.8km/h 90% 0in /  0.0mm 5 W/m2
06:04 59.2 °F /  15.1 °C 56.3 °F /  13.5 °C 29.9in /  1012.5hPa Calm   3mph /  4.8km/h 90% 0in /  0.0mm 5 W/m2
06:09 59.2 °F /  15.1 °C 56.3 °F /  13.5 °C 29.9in /  1012.2hPa ESE 0.9mph /  1.4km/h 1mph /  1.6km/h 90% 0in /  0.0mm 12 W/m2
06:14 59.2 °F /  15.1 °C 56.3 °F /  13.5 °C 29.9in /  1012.2hPa SW 0.9mph /  1.4km/h 3mph /  4.8km/h 90% 0in /  0.0mm 16 W/m2
06:19 59.2 °F /  15.1 °C 56.3 °F /  13.5 °C 29.9in /  1012.2hPa SW 0.9mph /  1.4km/h 2mph /  3.2km/h 90% 0in /  0.0mm 16 W/m2
06:24 59.4 °F /  15.2 °C 56.5 °F /  13.6 °C 29.9in /  1012.2hPa WNW 2mph /  3.2km/h 2mph /  3.2km/h 90% 0in /  0.0mm 21 W/m2
06:29 59.4 °F /  15.2 °C 56.1 °F /  13.4 °C 29.9in /  1012.2hPa Calm   2mph /  3.2km/h 89% 0in /  0.0mm 28 W/m2
06:34 59.5 °F /  15.3 °C 56.3 °F /  13.5 °C 29.9in /  1012.2hPa Calm   1mph /  1.6km/h 89% 0in /  0.0mm 23 W/m2
06:39 59.7 °F /  15.4 °C 56.5 °F /  13.6 °C 29.9in /  1012.2hPa West 2mph /  3.2km/h 2mph /  3.2km/h 89% 0in /  0.0mm 25 W/m2
06:44 59.7 °F /  15.4 °C 56.5 °F /  13.6 °C 29.9in /  1012.2hPa NW 2mph /  3.2km/h 3mph /  4.8km/h 89% 0in /  0.0mm 28 W/m2
06:49 60.1 °F /  15.6 °C 56.5 °F /  13.6 °C 29.9in /  1012.2hPa NNW 2mph /  3.2km/h 3mph /  4.8km/h 88% 0in /  0.0mm 30 W/m2
06:54 60.1 °F /  15.6 °C 56.5 °F /  13.6 °C 29.9in /  1012.2hPa North 0.9mph /  1.4km/h 1mph /  1.6km/h 88% 0in /  0.0mm 28 W/m2
06:59 60.3 °F /  15.7 °C 56.7 °F /  13.7 °C 29.9in /  1012.2hPa North 0.9mph /  1.4km/h 2mph /  3.2km/h 88% 0in /  0.0mm 25 W/m2
07:04 60.3 °F /  15.7 °C 56.7 °F /  13.7 °C 29.9in /  1011.9hPa Calm     88% 0in /  0.0mm 25 W/m2
07:09 60.3 °F /  15.7 °C 56.7 °F /  13.7 °C 29.9in /  1011.9hPa Calm   1mph /  1.6km/h 88% 0in /  0.0mm 19 W/m2
07:14 60.3 °F /  15.7 °C 56.7 °F /  13.7 °C 29.9in /  1011.9hPa NNE 0.9mph /  1.4km/h 2mph /  3.2km/h 88% 0in /  0.0mm 26 W/m2
07:19 60.3 °F /  15.7 °C 56.7 °F /  13.7 °C 29.9in /  1011.9hPa WNW 2mph /  3.2km/h 3mph /  4.8km/h 88% 0in /  0.0mm 51 W/m2
07:24 60.4 °F /  15.8 °C 56.8 °F /  13.8 °C 29.9in /  1011.9hPa WNW 0.9mph /  1.4km/h 3mph /  4.8km/h 88% 0in /  0.0mm 54 W/m2
07:29 60.4 °F /  15.8 °C 56.5 °F /  13.6 °C 29.9in /  1011.9hPa Calm     87% 0in /  0.0mm 53 W/m2
07:34 60.4 °F /  15.8 °C 56.5 °F /  13.6 °C 29.9in /  1011.9hPa Calm   3mph /  4.8km/h 87% 0in /  0.0mm 53 W/m2
07:39 60.4 °F /  15.8 °C 56.5 °F /  13.6 °C 29.9in /  1011.9hPa West 0.9mph /  1.4km/h 2mph /  3.2km/h 87% 0in /  0.0mm 51 W/m2
07:44 60.4 °F /  15.8 °C 56.8 °F /  13.8 °C 29.9in /  1011.9hPa Calm     88% 0in /  0.0mm 58 W/m2
07:49 60.4 °F /  15.8 °C 56.8 °F /  13.8 °C 29.9in /  1011.9hPa NE 0.9mph /  1.4km/h 3mph /  4.8km/h 88% 0in /  0.0mm 76 W/m2
07:54 60.4 °F /  15.8 °C 56.8 °F /  13.8 °C 29.9in /  1011.9hPa Calm   2mph /  3.2km/h 88% 0in /  0.0mm 86 W/m2
07:59 60.6 °F /  15.9 °C 57 °F /  13.9 °C 29.9in /  1011.9hPa Calm   3mph /  4.8km/h 88% 0in /  0.0mm 229 W/m2
08:04 61.2 °F /  16.2 °C 57.6 °F /  14.2 °C 29.9in /  1011.9hPa WNW 4mph /  6.4km/h 4mph /  6.4km/h 88% 0in /  0.0mm 323 W/m2
08:09 61.9 °F /  16.6 °C 57.9 °F /  14.4 °C 29.9in /  1011.9hPa West 2mph /  3.2km/h 6mph /  9.7km/h 87% 0in /  0.0mm 360 W/m2
08:14 62.6 °F /  17 °C 58.3 °F /  14.6 °C 29.9in /  1011.9hPa WNW 2.9mph /  4.7km/h 6mph /  9.7km/h 86% 0in /  0.0mm 220 W/m2
08:19 63 °F /  17.2 °C 58.5 °F /  14.7 °C 29.9in /  1011.9hPa Calm   3mph /  4.8km/h 85% 0in /  0.0mm 146 W/m2
08:24 63.3 °F /  17.4 °C 58.5 °F /  14.7 °C 29.9in /  1011.9hPa Calm   4mph /  6.4km/h 84% 0in /  0.0mm 141 W/m2
08:29 63.5 °F /  17.5 °C 58.3 °F /  14.6 °C 29.9in /  1011.9hPa Calm   3mph /  4.8km/h 83% 0in /  0.0mm 125 W/m2
08:34 63.9 °F /  17.7 °C 58.6 °F /  14.8 °C 29.9in /  1011.9hPa WSW 2mph /  3.2km/h 3mph /  4.8km/h 83% 0in /  0.0mm 79 W/m2
08:39 64 °F /  17.8 °C 58.8 °F /  14.9 °C 29.9in /  1011.5hPa West 2mph /  3.2km/h 2mph /  3.2km/h 83% 0in /  0.0mm 84 W/m2
08:44 64.2 °F /  17.9 °C 58.6 °F /  14.8 °C 29.9in /  1011.5hPa West 2mph /  3.2km/h 4mph /  6.4km/h 82% 0in /  0.0mm 111 W/m2
08:49 64.6 °F /  18.1 °C 59 °F /  15 °C 29.9in /  1011.5hPa West 2mph /  3.2km/h 2mph /  3.2km/h 82% 0in /  0.0mm 141 W/m2
08:54 64.9 °F /  18.3 °C 59 °F /  15 °C 29.9in /  1011.5hPa WSW 6.9mph /  11.1km/h 7mph /  11.3km/h 81% 0in /  0.0mm 146 W/m2
08:59 65.1 °F /  18.4 °C 59.2 °F /  15.1 °C 29.9in /  1011.5hPa SW 2mph /  3.2km/h 3mph /  4.8km/h 81% 0in /  0.0mm 169 W/m2
09:04 65.1 °F /  18.4 °C 59.2 °F /  15.1 °C 29.9in /  1011.5hPa Calm   3mph /  4.8km/h 81% 0in /  0.0mm 200 W/m2
09:09 65.3 °F /  18.5 °C 59 °F /  15 °C 29.9in /  1011.5hPa Calm   3mph /  4.8km/h 80% 0in /  0.0mm 220 W/m2
09:14 65.7 °F /  18.7 °C 59.4 °F /  15.2 °C 29.9in /  1011.2hPa ESE 0.9mph /  1.4km/h 2mph /  3.2km/h 80% 0in /  0.0mm 234 W/m2
09:19 65.8 °F /  18.8 °C 59.2 °F /  15.1 °C 29.9in /  1011.2hPa West 2.9mph /  4.7km/h 4mph /  6.4km/h 79% 0in /  0.0mm 234 W/m2
09:24 65.8 °F /  18.8 °C 59.2 °F /  15.1 °C 29.9in /  1011.2hPa West 2mph /  3.2km/h 2mph /  3.2km/h 79% 0in /  0.0mm 531 W/m2
09:29 66 °F /  18.9 °C 59.7 °F /  15.4 °C 29.9in /  1011.2hPa WSW 0.9mph /  1.4km/h 3mph /  4.8km/h 80% 0in /  0.0mm 424 W/m2
09:34 66.6 °F /  19.2 °C 59.5 °F /  15.3 °C 29.9in /  1011.2hPa Calm   3mph /  4.8km/h 78% 0in /  0.0mm 476 W/m2
09:40 66.9 °F /  19.4 °C 60.3 °F /  15.7 °C 29.9in /  1011.2hPa NW 0.9mph /  1.4km/h 4mph /  6.4km/h 79% 0in /  0.0mm 573 W/m2
09:45 67.3 °F /  19.6 °C 60.3 °F /  15.7 °C 29.9in /  1011.2hPa West 2mph /  3.2km/h 4mph /  6.4km/h 78% 0in /  0.0mm 575 W/m2
09:50 67.8 °F /  19.9 °C 60.6 °F /  15.9 °C 29.9in /  1010.8hPa NNE 2mph /  3.2km/h 2mph /  3.2km/h 78% 0in /  0.0mm 596 W/m2
09:55 68.7 °F /  20.4 °C 60.4 °F /  15.8 °C 29.9in /  1010.8hPa Calm   3mph /  4.8km/h 75% 0in /  0.0mm 647 W/m2
10:00 69.3 °F /  20.7 °C 60.6 °F /  15.9 °C 29.9in /  1010.8hPa NNE 0.9mph /  1.4km/h 4mph /  6.4km/h 74% 0in /  0.0mm 336 W/m2
10:05 69.4 °F /  20.8 °C 60.8 °F /  16 °C 29.9in /  1010.8hPa ESE 2mph /  3.2km/h 3mph /  4.8km/h 74% 0in /  0.0mm 274 W/m2
10:10 69.6 °F /  20.9 °C 61 °F /  16.1 °C 29.9in /  1010.8hPa SW 2.9mph /  4.7km/h 4mph /  6.4km/h 74% 0in /  0.0mm 554 W/m2
10:15 69.6 °F /  20.9 °C 61 °F /  16.1 °C 29.9in /  1010.8hPa West 0.9mph /  1.4km/h 3mph /  4.8km/h 74% 0in /  0.0mm 345 W/m2
10:20 69.4 °F /  20.8 °C 60.8 °F /  16 °C 29.9in /  1010.8hPa NW 2.9mph /  4.7km/h 4mph /  6.4km/h 74% 0in /  0.0mm 439 W/m2
10:25 69.4 °F /  20.8 °C 60.8 °F /  16 °C 29.9in /  1010.8hPa WNW 2mph /  3.2km/h 5mph /  8km/h 74% 0in /  0.0mm 464 W/m2
10:30 69.6 °F /  20.9 °C 61 °F /  16.1 °C 29.9in /  1010.8hPa NW 0.9mph /  1.4km/h 3mph /  4.8km/h 74% 0in /  0.0mm 376 W/m2
10:35 70 °F /  21.1 °C 61 °F /  16.1 °C 29.9in /  1010.8hPa Calm   5mph /  8km/h 73% 0in /  0.0mm 302 W/m2
10:40 70 °F /  21.1 °C 61 °F /  16.1 °C 29.9in /  1010.8hPa WNW 2.9mph /  4.7km/h 6mph /  9.7km/h 73% 0in /  0.0mm 432 W/m2
10:45 70 °F /  21.1 °C 61 °F /  16.1 °C 29.9in /  1010.8hPa SSW 2.9mph /  4.7km/h 3mph /  4.8km/h 73% 0in /  0.0mm 374 W/m2
10:50 70 °F /  21.1 °C 61 °F /  16.1 °C 29.9in /  1010.8hPa NW 0.9mph /  1.4km/h 5mph /  8km/h 73% 0in /  0.0mm 334 W/m2
10:55 70.2 °F /  21.2 °C 61.2 °F /  16.2 °C 29.8in /  1010.5hPa WSW 2mph /  3.2km/h 3mph /  4.8km/h 73% 0in /  0.0mm 330 W/m2
11:00 70.2 °F /  21.2 °C 61.2 °F /  16.2 °C 29.8in /  1010.5hPa Calm   5mph /  8km/h 73% 0in /  0.0mm 454 W/m2
11:05 70.5 °F /  21.4 °C 61 °F /  16.1 °C 29.8in /  1010.5hPa WNW 0.9mph /  1.4km/h 2mph /  3.2km/h 72% 0in /  0.0mm 483 W/m2
11:10 70.9 °F /  21.6 °C 61.3 °F /  16.3 °C 29.8in /  1010.5hPa Calm   3mph /  4.8km/h 72% 0in /  0.0mm 446 W/m2
11:15 70.9 °F /  21.6 °C 61 °F /  16.1 °C 29.8in /  1010.5hPa WNW 2.9mph /  4.7km/h 5mph /  8km/h 71% 0in /  0.0mm 394 W/m2
11:20 70.9 °F /  21.6 °C 61.3 °F /  16.3 °C 29.8in /  1010.5hPa NW 2mph /  3.2km/h 6mph /  9.7km/h 72% 0in /  0.0mm 359 W/m2
11:25 70.5 °F /  21.4 °C 60.6 °F /  15.9 °C 29.9in /  1010.8hPa West 2.9mph /  4.7km/h 8mph /  12.9km/h 71% 0in /  0.0mm 327 W/m2
11:30 70.3 °F /  21.3 °C 60.8 °F /  16 °C 29.9in /  1010.8hPa WNW 6.9mph /  11.1km/h 7mph /  11.3km/h 72% 0in /  0.0mm 323 W/m2
11:35 70.2 °F /  21.2 °C 60.3 °F /  15.7 °C 29.9in /  1010.8hPa West 6.9mph /  11.1km/h 8mph /  12.9km/h 71% 0in /  0.0mm 408 W/m2
11:40 70 °F /  21.1 °C 60.6 °F /  15.9 °C 29.8in /  1010.5hPa WNW 4mph /  6.4km/h 5mph /  8km/h 72% 0in /  0.0mm 373 W/m2
11:45 70 °F /  21.1 °C 61 °F /  16.1 °C 29.8in /  1010.5hPa WNW 2.9mph /  4.7km/h 7mph /  11.3km/h 73% 0in /  0.0mm 392 W/m2
11:50 70 °F /  21.1 °C 60.1 °F /  15.6 °C 29.8in /  1010.5hPa WNW 0.9mph /  1.4km/h 3mph /  4.8km/h 71% 0in /  0.0mm 362 W/m2
11:55 70 °F /  21.1 °C 61 °F /  16.1 °C 29.8in /  1010.5hPa NW 4mph /  6.4km/h 9mph /  14.5km/h 73% 0in /  0.0mm 366 W/m2
12:00 69.6 °F /  20.9 °C 60.6 °F /  15.9 °C 29.8in /  1010.5hPa West 4mph /  6.4km/h 8mph /  12.9km/h 73% 0in /  0.0mm 381 W/m2
12:05 69.4 °F /  20.8 °C 60.1 °F /  15.6 °C 29.8in /  1010.5hPa WNW 2.9mph /  4.7km/h 9mph /  14.5km/h 72% 0in /  0.0mm 373 W/m2
12:10 69.6 °F /  20.9 °C 60.6 °F /  15.9 °C 29.8in /  1010.5hPa West 2.9mph /  4.7km/h 6mph /  9.7km/h 73% 0in /  0.0mm 390 W/m2
12:15 69.6 °F /  20.9 °C 60.3 °F /  15.7 °C 29.9in /  1010.8hPa West 2.9mph /  4.7km/h 9mph /  14.5km/h 72% 0in /  0.0mm 274 W/m2
12:20 69.3 °F /  20.7 °C 59.9 °F /  15.5 °C 29.9in /  1010.8hPa WSW 2mph /  3.2km/h 7mph /  11.3km/h 72% 0in /  0.0mm 169 W/m2
12:25 69.1 °F /  20.6 °C 60.4 °F /  15.8 °C 29.9in /  1010.8hPa West 2.9mph /  4.7km/h 6mph /  9.7km/h 74% 0in /  0.0mm 121 W/m2
12:30 68.7 °F /  20.4 °C 60.4 °F /  15.8 °C 29.9in /  1010.8hPa West 2mph /  3.2km/h 6mph /  9.7km/h 75% 0in /  0.0mm 83 W/m2
12:35 68.5 °F /  20.3 °C 60.6 °F /  15.9 °C 29.9in /  1010.8hPa WSW 2.9mph /  4.7km/h 6mph /  9.7km/h 76% 0in /  0.0mm 63 W/m2
12:40 68.4 °F /  20.2 °C 60.4 °F /  15.8 °C 29.9in /  1010.8hPa WNW 10.1mph /  16.3km/h 10mph /  16.1km/h 76% 0in /  0.0mm 62 W/m2
12:45 68 °F /  20 °C 60.4 °F /  15.8 °C 29.9in /  1010.8hPa West 2.9mph /  4.7km/h 5mph /  8km/h 77% 0in /  0.0mm 56 W/m2
12:50 67.6 °F /  19.8 °C 60.6 °F /  15.9 °C 29.9in /  1011.2hPa NW 2.9mph /  4.7km/h 4mph /  6.4km/h 78% 0in /  0.0mm 40 W/m2
12:55 67.5 °F /  19.7 °C 60.4 °F /  15.8 °C 29.9in /  1011.2hPa West 6mph /  9.7km/h 10mph /  16.1km/h 78% 0in /  0.0mm 42 W/m2
13:00 67.3 °F /  19.6 °C 60.3 °F /  15.7 °C 29.9in /  1011.2hPa WNW 2.9mph /  4.7km/h 5mph /  8km/h 78% 0in /  0.0mm 47 W/m2
13:05 67.1 °F /  19.5 °C 60.1 °F /  15.6 °C 29.9in /  1011.2hPa NW 2mph /  3.2km/h 10mph /  16.1km/h 78% 0in /  0.0mm 42 W/m2
13:10 66.9 °F /  19.4 °C 60.3 °F /  15.7 °C 29.9in /  1011.2hPa WNW 2.9mph /  4.7km/h 8mph /  12.9km/h 79% 0in /  0.0mm 46 W/m2
13:15 66.6 °F /  19.2 °C 60.3 °F /  15.7 °C 29.9in /  1011.2hPa West 2.9mph /  4.7km/h 11mph /  17.7km/h 80% 0in /  0.0mm 35 W/m2
13:20 66.6 °F /  19.2 °C 61 °F /  16.1 °C 29.9in /  1011.2hPa West 6.9mph /  11.1km/h 9mph /  14.5km/h 82% 0in /  0.0mm 42 W/m2
13:25 65.7 °F /  18.7 °C 60.4 °F /  15.8 °C 29.9in /  1011.2hPa West 2.9mph /  4.7km/h 7mph /  11.3km/h 83% 0.01in /  0.2mm 46 W/m2
13:30 65.1 °F /  18.4 °C 60.4 °F /  15.8 °C 29.9in /  1011.2hPa West 4mph /  6.4km/h 10mph /  16.1km/h 85% 0.01in /  0.2mm 33 W/m2
13:35 64.6 °F /  18.1 °C 60.6 °F /  15.9 °C 29.9in /  1011.2hPa West 2.9mph /  4.7km/h 7mph /  11.3km/h 87% 0.01in /  0.2mm 21 W/m2
13:40 64.2 °F /  17.9 °C 60.6 °F /  15.9 °C 29.9in /  1011.2hPa WNW 2.9mph /  4.7km/h 9mph /  14.5km/h 88% 0.02in /  0.5mm 23 W/m2
13:45 63.9 °F /  17.7 °C 60.3 °F /  15.7 °C 29.9in /  1011.5hPa West 2.9mph /  4.7km/h 8mph /  12.9km/h 88% 0.02in /  0.5mm 25 W/m2
13:50 63.7 °F /  17.6 °C 60.4 °F /  15.8 °C 29.9in /  1011.9hPa West 2.9mph /  4.7km/h 7mph /  11.3km/h 89% 0.02in /  0.5mm 21 W/m2
13:55 63.5 °F /  17.5 °C 60.3 °F /  15.7 °C 29.9in /  1011.9hPa West 0.9mph /  1.4km/h 3mph /  4.8km/h 89% 0.02in /  0.5mm 19 W/m2
14:00 63.3 °F /  17.4 °C 60.1 °F /  15.6 °C 29.9in /  1012.2hPa NW 2mph /  3.2km/h 6mph /  9.7km/h 89% 0.02in /  0.5mm 19 W/m2
14:05 63.1 °F /  17.3 °C 59.9 °F /  15.5 °C 29.9in /  1012.2hPa WSW 2mph /  3.2km/h 3mph /  4.8km/h 89% 0.02in /  0.5mm 19 W/m2
14:10 63 °F /  17.2 °C 59.7 °F /  15.4 °C 29.9in /  1011.9hPa West 0.9mph /  1.4km/h 3mph /  4.8km/h 89% 0.02in /  0.5mm 21 W/m2
14:15 63 °F /  17.2 °C 59.9 °F /  15.5 °C 29.9in /  1011.9hPa WNW 2.9mph /  4.7km/h 3mph /  4.8km/h 90% 0.03in /  0.8mm 23 W/m2
14:20 63 °F /  17.2 °C 60.3 °F /  15.7 °C 29.9in /  1011.9hPa NW 0.9mph /  1.4km/h 4mph /  6.4km/h 91% 0.04in /  1.0mm 26 W/m2
14:25 62.8 °F /  17.1 °C 60.1 °F /  15.6 °C 29.9in /  1011.9hPa WNW 0.9mph /  1.4km/h 2mph /  3.2km/h 91% 0.04in /  1.0mm 30 W/m2
14:30 62.8 °F /  17.1 °C 60.1 °F /  15.6 °C 29.9in /  1011.9hPa Calm   1mph /  1.6km/h 91% 0.06in /  1.5mm 37 W/m2
14:35 62.8 °F /  17.1 °C 60.4 °F /  15.8 °C 29.9in /  1011.9hPa Calm     92% 0.09in /  2.3mm 47 W/m2
14:40 62.6 °F /  17 °C 60.3 °F /  15.7 °C 29.9in /  1011.9hPa Calm     92% 0.09in /  2.3mm 62 W/m2
14:45 62.6 °F /  17 °C 60.3 °F /  15.7 °C 29.9in /  1011.9hPa Calm   1mph /  1.6km/h 92% 0.1in /  2.5mm 81 W/m2
14:50 62.4 °F /  16.9 °C 60.1 °F /  15.6 °C 29.9in /  1011.5hPa Calm   1mph /  1.6km/h 92% 0.1in /  2.5mm 97 W/m2
14:55 62.6 °F /  17 °C 60.6 °F /  15.9 °C 29.9in /  1011.2hPa Calm   2mph /  3.2km/h 93% 0.1in /  2.5mm 116 W/m2
15:00 62.6 °F /  17 °C 60.6 °F /  15.9 °C 29.9in /  1010.8hPa Calm   2mph /  3.2km/h 93% 0.1in /  2.5mm 120 W/m2
15:05 62.8 °F /  17.1 °C 60.8 °F /  16 °C 29.9in /  1010.8hPa Calm   2mph /  3.2km/h 93% 0.1in /  2.5mm 120 W/m2
15:10 62.6 °F /  17 °C 60.6 °F /  15.9 °C 29.9in /  1011.5hPa WNW 0.9mph /  1.4km/h 2mph /  3.2km/h 93% 0.1in /  2.5mm 148 W/m2
15:15 62.6 °F /  17 °C 60.6 °F /  15.9 °C 29.9in /  1011.9hPa Calm   1mph /  1.6km/h 93% 0.09in /  2.3mm 163 W/m2
15:20 62.6 °F /  17 °C 60.3 °F /  15.7 °C 29.9in /  1011.5hPa NW 0.9mph /  1.4km/h 2mph /  3.2km/h 92% 0.09in /  2.3mm 206 W/m2
15:25 62.6 °F /  17 °C 59.9 °F /  15.5 °C 29.9in /  1011.2hPa NW 0.9mph /  1.4km/h 2mph /  3.2km/h 91% 0.07in /  1.8mm 213 W/m2
15:30 62.8 °F /  17.1 °C 60.1 °F /  15.6 °C 29.9in /  1011.5hPa Calm   1mph /  1.6km/h 91% 0.06in /  1.5mm 213 W/m2
15:35 63 °F /  17.2 °C 60.3 °F /  15.7 °C 29.9in /  1011.5hPa Calm     91% 0.03in /  0.8mm 214 W/m2
15:40 63.1 °F /  17.3 °C 60.4 °F /  15.8 °C 29.9in /  1011.5hPa WNW 0.9mph /  1.4km/h 2mph /  3.2km/h 91% 0.02in /  0.5mm 197 W/m2
15:45 63.3 °F /  17.4 °C 60.3 °F /  15.7 °C 29.9in /  1011.5hPa Calm   2mph /  3.2km/h 90% 0.01in /  0.2mm 176 W/m2
15:50 63.7 °F /  17.6 °C 60.6 °F /  15.9 °C 29.9in /  1011.5hPa Calm   1mph /  1.6km/h 90% 0.01in /  0.2mm 176 W/m2
15:55 64 °F /  17.8 °C 61.3 °F /  16.3 °C 29.9in /  1011.5hPa NE 0.9mph /  1.4km/h 1mph /  1.6km/h 91% 0.01in /  0.2mm 211 W/m2
16:01 64 °F /  17.8 °C 61 °F /  16.1 °C 29.9in /  1011.2hPa NW 2mph /  3.2km/h 3mph /  4.8km/h 90% 0.01in /  0.2mm 244 W/m2
16:06 64 °F /  17.8 °C 60.8 °F /  16 °C 29.9in /  1011.2hPa Calm   2mph /  3.2km/h 89% 0.01in /  0.2mm 193 W/m2
16:11 64 °F /  17.8 °C 60.4 °F /  15.8 °C 29.9in /  1010.8hPa Calm   1mph /  1.6km/h 88% 0.01in /  0.2mm 225 W/m2
16:16 64.2 °F /  17.9 °C 60.6 °F /  15.9 °C 29.9in /  1010.8hPa WNW 0.9mph /  1.4km/h 3mph /  4.8km/h 88% 0.01in /  0.2mm 156 W/m2
16:21 64.2 °F /  17.9 °C 60.6 °F /  15.9 °C 29.9in /  1011.2hPa WNW 0.9mph /  1.4km/h 3mph /  4.8km/h 88% 0in /  0.0mm 104 W/m2
16:26 64.2 °F /  17.9 °C 61 °F /  16.1 °C 29.9in /  1011.2hPa WNW 2mph /  3.2km/h 6mph /  9.7km/h 89% 0in /  0.0mm 121 W/m2
16:31 64 °F /  17.8 °C 60.8 °F /  16 °C 29.9in /  1011.2hPa West 2mph /  3.2km/h 4mph /  6.4km/h 89% 0in /  0.0mm 105 W/m2
16:36 63.9 °F /  17.7 °C 60.6 °F /  15.9 °C 29.9in /  1011.2hPa WNW 4.9mph /  7.9km/h 8mph /  12.9km/h 89% 0in /  0.0mm 91 W/m2
16:41 63.7 °F /  17.6 °C 60.6 °F /  15.9 °C 29.9in /  1011.2hPa SSW 2mph /  3.2km/h 4mph /  6.4km/h 90% 0in /  0.0mm 65 W/m2
16:46 63.7 °F /  17.6 °C 60.6 °F /  15.9 °C 29.9in /  1011.2hPa WSW 2mph /  3.2km/h 3mph /  4.8km/h 90% 0in /  0.0mm 74 W/m2
16:51 63.3 °F /  17.4 °C 60.3 °F /  15.7 °C 29.9in /  1011.2hPa Calm   2mph /  3.2km/h 90% 0in /  0.0mm 79 W/m2
16:56 63.3 °F /  17.4 °C 60.6 °F /  15.9 °C 29.9in /  1011.5hPa WNW 2.9mph /  4.7km/h 3mph /  4.8km/h 91% 0in /  0.0mm 88 W/m2
17:01 63.1 °F /  17.3 °C 60.1 °F /  15.6 °C 29.9in /  1011.2hPa Calm   2mph /  3.2km/h 90% 0in /  0.0mm 107 W/m2
17:06 63.3 °F /  17.4 °C 60.6 °F /  15.9 °C 29.9in /  1011.5hPa Calm     91% 0in /  0.0mm 144 W/m2
17:11 63.5 °F /  17.5 °C 60.8 °F /  16 °C 29.9in /  1011.5hPa Calm     91% 0in /  0.0mm 153 W/m2
17:16 63.7 °F /  17.6 °C 61.3 °F /  16.3 °C 29.9in /  1011.5hPa Calm     92% 0in /  0.0mm 151 W/m2
17:21 63.9 °F /  17.7 °C 61.2 °F /  16.2 °C 29.9in /  1011.5hPa ENE 2mph /  3.2km/h 2mph /  3.2km/h 91% 0in /  0.0mm 169 W/m2
17:26 64 °F /  17.8 °C 61.7 °F /  16.5 °C 29.9in /  1011.2hPa ESE 0.9mph /  1.4km/h 1mph /  1.6km/h 92% 0in /  0.0mm 229 W/m2
17:31 64 °F /  17.8 °C 61.3 °F /  16.3 °C 29.9in /  1011.2hPa Calm   2mph /  3.2km/h 91% 0in /  0.0mm 186 W/m2
17:36 64.4 °F /  18 °C 62.1 °F /  16.7 °C 29.9in /  1011.5hPa Calm     92% 0in /  0.0mm 107 W/m2
17:41 64.6 °F /  18.1 °C 61.9 °F /  16.6 °C 29.9in /  1011.5hPa Calm   2mph /  3.2km/h 91% 0in /  0.0mm 70 W/m2
17:46 64.6 °F /  18.1 °C 61.5 °F /  16.4 °C 29.9in /  1011.5hPa WSW 0.9mph /  1.4km/h 2mph /  3.2km/h 90% 0in /  0.0mm 77 W/m2
17:51 64.4 °F /  18 °C 61.2 °F /  16.2 °C 29.9in /  1011.5hPa West 2mph /  3.2km/h 6mph /  9.7km/h 89% 0.02in /  0.5mm 120 W/m2
17:56 64 °F /  17.8 °C 61 °F /  16.1 °C 29.9in /  1011.5hPa Calm   2mph /  3.2km/h 90% 0.02in /  0.5mm 178 W/m2
18:01 63.9 °F /  17.7 °C 60.6 °F /  15.9 °C 29.9in /  1011.5hPa WSW 0.9mph /  1.4km/h 5mph /  8km/h 89% 0.02in /  0.5mm 330 W/m2
18:06 64 °F /  17.8 °C 61 °F /  16.1 °C 29.9in /  1011.5hPa WNW 2mph /  3.2km/h 3mph /  4.8km/h 90% 0.02in /  0.5mm 364 W/m2
18:11 64 °F /  17.8 °C 61 °F /  16.1 °C 29.9in /  1011.5hPa Calm   3mph /  4.8km/h 90% 0.02in /  0.5mm 176 W/m2
18:16 64.2 °F /  17.9 °C 61.2 °F /  16.2 °C 29.9in /  1011.5hPa West 2mph /  3.2km/h 3mph /  4.8km/h 90% 0.02in /  0.5mm 128 W/m2
18:21 64.2 °F /  17.9 °C 61.2 °F /  16.2 °C 29.9in /  1011.5hPa Calm     90% 0.02in /  0.5mm 81 W/m2
18:26 64.2 °F /  17.9 °C 61.2 °F /  16.2 °C 29.9in /  1011.5hPa Calm   3mph /  4.8km/h 90% 0.02in /  0.5mm 23 W/m2
18:31 64 °F /  17.8 °C 60.8 °F /  16 °C 29.9in /  1011.5hPa NNW 4mph /  6.4km/h 5mph /  8km/h 89% 0.03in /  0.8mm 62 W/m2
18:36 63.7 °F /  17.6 °C 60.1 °F /  15.6 °C 29.9in /  1011.5hPa WNW 2.9mph /  4.7km/h 6mph /  9.7km/h 88% 0.03in /  0.8mm 97 W/m2
18:41 63.3 °F /  17.4 °C 59.4 °F /  15.2 °C 29.9in /  1011.2hPa WNW 2mph /  3.2km/h 7mph /  11.3km/h 87% 0.03in /  0.8mm 134 W/m2
18:46 63.1 °F /  17.3 °C 59.9 °F /  15.5 °C 29.9in /  1011.5hPa West 2.9mph /  4.7km/h 4mph /  6.4km/h 89% 0.03in /  0.8mm 167 W/m2
18:51 63.1 °F /  17.3 °C 60.1 °F /  15.6 °C 29.9in /  1011.5hPa WNW 4mph /  6.4km/h 5mph /  8km/h 90% 0.01in /  0.2mm 172 W/m2
18:56 63.1 °F /  17.3 °C 59.9 °F /  15.5 °C 29.9in /  1011.5hPa NW 4.9mph /  7.9km/h 7mph /  11.3km/h 89% 0.01in /  0.2mm 158 W/m2
19:01 63.1 °F /  17.3 °C 59.9 °F /  15.5 °C 29.9in /  1011.5hPa NW 2mph /  3.2km/h 4mph /  6.4km/h 89% 0.01in /  0.2mm 160 W/m2
19:06 63.1 °F /  17.3 °C 59.5 °F /  15.3 °C 29.9in /  1011.5hPa NNW 2.9mph /  4.7km/h 3mph /  4.8km/h 88% 0.01in /  0.2mm 185 W/m2
19:11 63.1 °F /  17.3 °C 59.9 °F /  15.5 °C 29.9in /  1011.5hPa WNW 4mph /  6.4km/h 5mph /  8km/h 89% 0.01in /  0.2mm 306 W/m2
19:16 63.5 °F /  17.5 °C 59.9 °F /  15.5 °C 29.9in /  1011.2hPa WNW 2.9mph /  4.7km/h 6mph /  9.7km/h 88% 0.01in /  0.2mm 281 W/m2
19:21 63.9 °F /  17.7 °C 60.6 °F /  15.9 °C 29.9in /  1011.2hPa WSW 2.9mph /  4.7km/h 3mph /  4.8km/h 89% 0.01in /  0.2mm 127 W/m2
19:26 63.9 °F /  17.7 °C 60.3 °F /  15.7 °C 29.9in /  1011.2hPa West 0.9mph /  1.4km/h 5mph /  8km/h 88% 0.01in /  0.2mm 160 W/m2
19:31 63.7 °F /  17.6 °C 60.1 °F /  15.6 °C 29.9in /  1011.2hPa WNW 0.9mph /  1.4km/h 3mph /  4.8km/h 88% 0in /  0.0mm 105 W/m2
19:36 63.7 °F /  17.6 °C 60.1 °F /  15.6 °C 29.9in /  1011.2hPa Calm     88% 0in /  0.0mm 83 W/m2
19:41 63.3 °F /  17.4 °C 59.7 °F /  15.4 °C 29.9in /  1011.2hPa Calm   2mph /  3.2km/h 88% 0in /  0.0mm 104 W/m2
19:46 63.7 °F /  17.6 °C 60.6 °F /  15.9 °C 29.9in /  1011.2hPa Calm   1mph /  1.6km/h 90% 0in /  0.0mm 174 W/m2
19:51 63.9 °F /  17.7 °C 60.3 °F /  15.7 °C 29.9in /  1011.2hPa Calm   2mph /  3.2km/h 88% 0in /  0.0mm 125 W/m2
19:56 64 °F /  17.8 °C 60.1 °F /  15.6 °C 29.9in /  1011.2hPa Calm     87% 0in /  0.0mm 109 W/m2
20:01 64.2 °F /  17.9 °C 60.6 °F /  15.9 °C 29.9in /  1011.2hPa Calm     88% 0in /  0.0mm 165 W/m2
20:06 64.6 °F /  18.1 °C 60.6 °F /  15.9 °C 29.9in /  1011.2hPa WNW 0.9mph /  1.4km/h 2mph /  3.2km/h 87% 0in /  0.0mm 174 W/m2
20:11 64.9 °F /  18.3 °C 60.6 °F /  15.9 °C 29.9in /  1011.2hPa West 0.9mph /  1.4km/h 2mph /  3.2km/h 86% 0in /  0.0mm 162 W/m2
20:16 64.9 °F /  18.3 °C 60.3 °F /  15.7 °C 29.9in /  1011.2hPa WNW 2mph /  3.2km/h 3mph /  4.8km/h 85% 0in /  0.0mm 137 W/m2
20:21 64.9 °F /  18.3 °C 60.3 °F /  15.7 °C 29.9in /  1011.2hPa West 0.9mph /  1.4km/h 2mph /  3.2km/h 85% 0in /  0.0mm 141 W/m2
20:26 65.3 °F /  18.5 °C 60.6 °F /  15.9 °C 29.9in /  1011.2hPa Calm     85% 0in /  0.0mm 102 W/m2
20:31 65.7 °F /  18.7 °C 61.3 °F /  16.3 °C 29.9in /  1011.2hPa West 2mph /  3.2km/h 2mph /  3.2km/h 86% 0in /  0.0mm 60 W/m2
20:36 65.5 °F /  18.6 °C 60.8 °F /  16 °C 29.9in /  1011.2hPa Calm     85% 0in /  0.0mm 32 W/m2
20:41 65.1 °F /  18.4 °C 60.8 °F /  16 °C 29.9in /  1011.2hPa Calm     86% 0in /  0.0mm 25 W/m2
20:46 64.8 °F /  18.2 °C 60.4 °F /  15.8 °C 29.9in /  1011.2hPa Calm     86% 0in /  0.0mm 19 W/m2
20:51 64 °F /  17.8 °C 59.7 °F /  15.4 °C 29.9in /  1010.8hPa Calm     86% 0in /  0.0mm 16 W/m2
20:56 63.5 °F /  17.5 °C 59.5 °F /  15.3 °C 29.9in /  1010.8hPa Calm     87% 0in /  0.0mm 14 W/m2
21:01 63 °F /  17.2 °C 59.4 °F /  15.2 °C 29.9in /  1010.8hPa Calm     88% 0in /  0.0mm 12 W/m2
21:06 62.4 °F /  16.9 °C 58.8 °F /  14.9 °C 29.9in /  1010.8hPa Calm     88% 0in /  0.0mm 11 W/m2
21:11 61.9 °F /  16.6 °C 58.3 °F /  14.6 °C 29.9in /  1010.8hPa Calm     88% 0in /  0.0mm 9 W/m2
21:16 61.2 °F /  16.2 °C 57.9 °F /  14.4 °C 29.9in /  1010.8hPa Calm     89% 0in /  0.0mm 7 W/m2
21:21 60.8 °F /  16 °C 57.9 °F /  14.4 °C 29.9in /  1010.8hPa Calm     90% 0in /  0.0mm 7 W/m2
21:26 60.4 °F /  15.8 °C 57.7 °F /  14.3 °C 29.9in /  1011.2hPa Calm     91% 0in /  0.0mm 5 W/m2
21:31 60.1 °F /  15.6 °C 57.4 °F /  14.1 °C 29.9in /  1010.8hPa Calm     91% 0in /  0.0mm 5 W/m2
21:36 59.7 °F /  15.4 °C 57.4 °F /  14.1 °C 29.9in /  1011.2hPa Calm     92% 0in /  0.0mm 0 W/m2
21:41 59.4 °F /  15.2 °C 57 °F /  13.9 °C 29.9in /  1011.2hPa Calm     92% 0in /  0.0mm 0 W/m2
21:46 59.4 °F /  15.2 °C 57.4 °F /  14.1 °C 29.9in /  1011.2hPa Calm     93% 0in /  0.0mm 0 W/m2
21:51 59.2 °F /  15.1 °C 57.2 °F /  14 °C 29.9in /  1010.8hPa Calm     93% 0in /  0.0mm 0 W/m2
21:56 58.8 °F /  14.9 °C 56.8 °F /  13.8 °C 29.9in /  1011.2hPa Calm     93% 0in /  0.0mm 0 W/m2
22:01 58.6 °F /  14.8 °C 56.7 °F /  13.7 °C 29.9in /  1011.2hPa Calm     93% 0in /  0.0mm 0 W/m2
22:06 58.5 °F /  14.7 °C 56.5 °F /  13.6 °C 29.9in /  1011.5hPa Calm     93% 0in /  0.0mm 0 W/m2
22:11 58.3 °F /  14.6 °C 56.3 °F /  13.5 °C 29.9in /  1011.5hPa Calm     93% 0in /  0.0mm 0 W/m2
22:16 58.3 °F /  14.6 °C 56.5 °F /  13.6 °C 29.9in /  1011.5hPa West 0.9mph /  1.4km/h 2mph /  3.2km/h 94% 0in /  0.0mm 0 W/m2
22:21 58.1 °F /  14.5 °C 56.3 °F /  13.5 °C 29.9in /  1011.5hPa Calm   1mph /  1.6km/h 94% 0in /  0.0mm 0 W/m2
22:26 58.1 °F /  14.5 °C 56.3 °F /  13.5 °C 29.9in /  1011.5hPa West 2mph /  3.2km/h 2mph /  3.2km/h 94% 0in /  0.0mm 0 W/m2
22:31 57.9 °F /  14.4 °C 56.1 °F /  13.4 °C 29.9in /  1011.5hPa Calm     94% 0in /  0.0mm 0 W/m2
22:36 57.9 °F /  14.4 °C 56.1 °F /  13.4 °C 29.9in /  1011.5hPa West 2mph /  3.2km/h 2mph /  3.2km/h 94% 0in /  0.0mm 0 W/m2
22:41 57.9 °F /  14.4 °C 56.5 °F /  13.6 °C 29.9in /  1011.5hPa West 0.9mph /  1.4km/h 1mph /  1.6km/h 95% 0in /  0.0mm 0 W/m2
22:46 57.9 °F /  14.4 °C 56.5 °F /  13.6 °C 29.9in /  1011.5hPa Calm   1mph /  1.6km/h 95% 0in /  0.0mm 0 W/m2
22:51 57.9 °F /  14.4 °C 56.5 °F /  13.6 °C 29.9in /  1011.5hPa Calm     95% 0in /  0.0mm 0 W/m2
22:56 58.1 °F /  14.5 °C 56.7 °F /  13.7 °C 29.9in /  1011.5hPa Calm   1mph /  1.6km/h 95% 0in /  0.0mm 0 W/m2
23:01 57.9 °F /  14.4 °C 56.5 °F /  13.6 °C 29.9in /  1011.5hPa Calm   1mph /  1.6km/h 95% 0in /  0.0mm 0 W/m2
23:06 58.1 °F /  14.5 °C 56.7 °F /  13.7 °C 29.9in /  1011.5hPa Calm   2mph /  3.2km/h 95% 0in /  0.0mm 0 W/m2
23:11 58.1 °F /  14.5 °C 56.7 °F /  13.7 °C 29.9in /  1011.9hPa WSW 2.9mph /  4.7km/h 3mph /  4.8km/h 95% 0in /  0.0mm 0 W/m2
23:16 58.1 °F /  14.5 °C 56.7 °F /  13.7 °C 29.9in /  1011.9hPa West 2mph /  3.2km/h 2mph /  3.2km/h 95% 0in /  0.0mm 0 W/m2
23:21 58.3 °F /  14.6 °C 56.8 °F /  13.8 °C 29.9in /  1011.9hPa WNW 0.9mph /  1.4km/h 2mph /  3.2km/h 95% 0in /  0.0mm 0 W/m2
23:26 58.3 °F /  14.6 °C 56.8 °F /  13.8 °C 29.9in /  1011.9hPa West 2mph /  3.2km/h 3mph /  4.8km/h 95% 0in /  0.0mm 0 W/m2
23:31 58.3 °F /  14.6 °C 56.8 °F /  13.8 °C 29.9in /  1011.9hPa WSW 2mph /  3.2km/h 3mph /  4.8km/h 95% 0in /  0.0mm 0 W/m2
23:36 58.3 °F /  14.6 °C 56.8 °F /  13.8 °C 29.9in /  1011.9hPa WSW 4.9mph /  7.9km/h 6mph /  9.7km/h 95% 0in /  0.0mm 0 W/m2
23:41 58.3 °F /  14.6 °C 56.8 °F /  13.8 °C 29.9in /  1011.9hPa WNW 2.9mph /  4.7km/h 4mph /  6.4km/h 95% 0in /  0.0mm 0 W/m2
23:46 58.3 °F /  14.6 °C 56.5 °F /  13.6 °C 29.9in /  1011.9hPa West 2mph /  3.2km/h 3mph /  4.8km/h 94% 0in /  0.0mm 0 W/m2
23:51 57.9 °F /  14.4 °C 56.1 °F /  13.4 °C 29.9in /  1011.5hPa West 2mph /  3.2km/h 3mph /  4.8km/h 94% 0in /  0.0mm 0 W/m2
23:56 57.7 °F /  14.3 °C 55.8 °F /  13.2 °C 29.9in /  1011.5hPa WSW 2mph /  3.2km/h 4mph /  6.4km/h 93% 0in /  0.0mm 0 W/m2
Juneau County Weather
Compliments of Weather Underground - 4 mb